createdAt,value
2022-09-29T06:43:51.254Z,12.50
2022-09-29T06:46:30.127Z,15.20
2022-09-29T06:49:07.228Z,10.73
2022-09-29T06:51:46.320Z,14.80
2022-09-29T06:54:27.094Z,12.73
2022-09-29T06:57:05.195Z,9.33
2022-09-29T06:59:44.610Z,14.43
2022-09-29T07:02:21.929Z,12.27
2022-09-29T07:04:58.695Z,12.70
2022-09-29T07:07:35.852Z,10.70
2022-09-29T07:10:13.845Z,10.20
2022-09-29T07:12:51.280Z,11.87
2022-09-29T07:15:32.109Z,14.03
2022-09-29T07:18:10.333Z,13.30
2022-09-29T07:20:47.086Z,14.63
2022-09-29T07:23:24.246Z,11.57
2022-09-29T07:26:01.254Z,11.53
2022-09-29T07:28:39.529Z,12.13
2022-09-29T07:31:22.593Z,10.47
2022-09-29T07:34:00.798Z,12.80
2022-09-29T07:36:39.409Z,12.10
2022-09-29T07:39:17.036Z,8.80
2022-09-29T07:41:55.507Z,11.30
2022-09-29T07:44:33.099Z,10.33
2022-09-29T07:47:12.560Z,15.20
2022-09-29T07:49:50.177Z,10.93
2022-09-29T07:52:26.915Z,9.80
2022-09-29T07:55:04.179Z,15.53
2022-09-29T07:57:41.068Z,10.67
2022-09-29T08:00:19.192Z,10.53
2022-09-29T08:02:58.593Z,13.47
2022-09-29T08:05:36.713Z,9.90
2022-09-29T08:08:13.415Z,9.10
2022-09-29T08:10:53.707Z,8.37
2022-09-29T08:13:30.813Z,8.20
2022-09-29T08:16:11.966Z,10.37
2022-09-29T08:18:52.016Z,10.43
2022-09-29T08:21:30.065Z,9.63
2022-09-29T08:24:08.052Z,8.97
2022-09-29T08:26:45.347Z,8.10
2022-09-29T08:29:26.065Z,8.83
2022-09-29T08:32:03.867Z,10.87
2022-09-29T08:34:43.352Z,8.57
2022-09-29T08:37:20.552Z,10.07
2022-09-29T08:39:57.680Z,11.07
2022-09-29T08:42:51.804Z,11.93
2022-09-29T08:45:35.217Z,7.90
2022-09-29T08:51:08.011Z,10.13
2022-09-29T08:54:02.100Z,11.27
2022-09-29T08:56:40.109Z,10.07
2022-09-29T08:59:17.510Z,10.03
2022-09-29T09:02:16.762Z,9.60
2022-09-29T09:05:21.671Z,9.27
2022-09-29T09:08:13.868Z,8.03
2022-09-29T09:11:01.918Z,8.23
2022-09-29T09:14:07.510Z,7.83
2022-09-29T09:16:57.112Z,7.63
2022-09-29T09:20:00.070Z,8.80
2022-09-29T09:22:49.548Z,9.18
2022-09-29T09:25:34.439Z,7.00
2022-09-29T09:28:20.378Z,7.13
2022-09-29T09:31:01.735Z,6.73
2022-09-29T09:33:57.916Z,6.93
2022-09-29T09:36:44.115Z,10.50
2022-09-29T09:39:30.131Z,7.73
2022-09-29T09:42:18.536Z,7.77
2022-09-29T09:45:00.447Z,7.93
2022-09-29T09:47:42.291Z,8.60
2022-09-29T09:50:22.216Z,5.90
2022-09-29T09:53:04.585Z,7.83
2022-09-29T09:55:42.037Z,8.20
2022-09-29T09:58:56.031Z,11.17
2022-09-29T10:01:33.200Z,8.17
2022-09-29T10:04:13.230Z,6.78
2022-09-29T10:06:50.697Z,5.57
2022-09-29T10:09:27.815Z,7.40
2022-09-29T10:12:05.440Z,6.20
2022-09-29T10:14:51.479Z,6.25
2022-09-29T10:17:43.248Z,6.20
2022-09-29T10:20:36.847Z,4.50
2022-09-29T10:23:35.440Z,7.82
2022-09-29T10:26:21.367Z,9.35
2022-09-29T10:29:04.258Z,5.57
2022-09-29T10:31:43.939Z,6.50
2022-09-29T10:34:26.757Z,9.50
2022-09-29T10:37:06.619Z,6.45
2022-09-29T10:39:48.577Z,7.03
2022-09-29T10:42:28.227Z,5.47
2022-09-29T10:45:16.268Z,5.25
2022-09-29T10:48:13.050Z,7.93
2022-09-29T10:50:57.193Z,15.10
2022-09-29T10:53:40.588Z,7.43
2022-09-29T10:56:25.267Z,7.22
2022-09-29T10:59:06.148Z,6.18
2022-09-29T11:01:50.947Z,6.88
2022-09-29T11:04:36.789Z,5.50
2022-09-29T11:07:16.107Z,6.35
2022-09-29T11:09:55.255Z,4.60
2022-09-29T11:12:39.304Z,6.18
2022-09-29T11:15:29.867Z,4.10
2022-09-29T11:18:23.118Z,5.70
2022-09-29T11:21:21.647Z,4.35
2022-09-29T11:24:06.367Z,5.30
2022-09-29T11:26:47.826Z,5.13
2022-09-29T11:29:36.427Z,5.28
2022-09-29T11:32:33.780Z,5.55
2022-09-29T11:35:46.101Z,7.47
2022-09-29T11:38:55.299Z,5.57
2022-09-29T11:42:01.551Z,6.22
2022-09-29T11:45:01.967Z,5.80
2022-09-29T11:48:04.979Z,4.85
2022-09-29T11:50:50.494Z,5.35
2022-09-29T11:53:51.651Z,5.68
2022-09-29T11:56:39.256Z,5.13
2022-09-29T11:59:45.841Z,9.93
2022-09-29T12:03:04.656Z,4.38
2022-09-29T12:06:01.279Z,4.95
2022-09-29T12:09:01.356Z,3.97
2022-09-29T12:12:11.589Z,4.88
2022-09-29T12:15:04.137Z,5.47
2022-09-29T12:17:45.310Z,5.85
2022-09-29T12:20:27.719Z,5.57
2022-09-29T12:23:13.681Z,5.30
2022-09-29T12:26:03.391Z,5.28
2022-09-29T12:28:48.750Z,5.47
2022-09-29T12:31:42.777Z,5.25
2022-09-29T12:34:32.918Z,5.88
2022-09-29T12:37:18.586Z,4.50
2022-09-29T12:40:06.559Z,3.88
2022-09-29T12:43:17.768Z,4.75
2022-09-29T12:46:03.903Z,4.55
2022-09-29T12:48:56.199Z,4.28
2022-09-29T12:51:40.730Z,5.57
2022-09-29T12:54:25.051Z,4.35
2022-09-29T12:57:07.009Z,7.25
2022-09-29T12:59:55.930Z,3.00
2022-09-29T13:03:15.933Z,3.00
2022-09-29T13:06:48.871Z,2.95
2022-09-29T13:10:09.321Z,3.08
2022-09-29T13:13:43.179Z,2.35
2022-09-29T13:16:43.220Z,2.40
2022-09-29T13:20:03.087Z,3.92
2022-09-29T13:23:44.802Z,5.60
2022-09-29T13:26:53.978Z,3.63
2022-09-29T13:29:34.064Z,3.80
2022-09-29T13:32:14.777Z,3.95
2022-09-29T13:34:57.842Z,3.90
2022-09-29T13:37:51.879Z,3.92
2022-09-29T13:40:31.727Z,3.20
2022-09-29T13:43:08.920Z,4.30
2022-09-29T13:45:50.308Z,5.53
2022-09-29T13:48:54.780Z,3.90
2022-09-29T13:51:50.420Z,3.45
2022-09-29T13:54:39.680Z,3.20
2022-09-29T13:57:28.461Z,3.35
2022-09-29T14:00:31.744Z,3.40
2022-09-29T14:03:27.685Z,3.50
2022-09-29T14:09:23.537Z,4.25
2022-09-29T14:12:02.960Z,2.65
2022-09-29T14:14:46.471Z,2.90
2022-09-29T14:17:29.343Z,1.95
2022-09-29T14:20:20.286Z,3.33
2022-09-29T14:23:04.261Z,2.33
2022-09-29T14:26:00.683Z,2.97
2022-09-29T14:28:45.323Z,4.82
2022-09-29T14:31:28.598Z,4.30
2022-09-29T14:34:06.177Z,2.90
2022-09-29T14:36:47.374Z,3.42
2022-09-29T14:39:28.645Z,3.65
2022-09-29T14:42:06.309Z,4.40
2022-09-29T14:45:04.096Z,3.45
2022-09-29T14:48:01.257Z,5.25
2022-09-29T14:51:03.105Z,5.13
2022-09-29T14:54:03.926Z,8.30
2022-09-29T14:57:03.475Z,3.10
2022-09-29T15:00:00.329Z,2.65
2022-09-29T15:02:38.855Z,2.70
2022-09-29T15:05:30.925Z,3.13
2022-09-29T15:08:31.999Z,4.07
2022-09-29T15:11:30.954Z,5.93
2022-09-29T15:14:27.257Z,3.90
2022-09-29T15:17:21.258Z,4.25
2022-09-29T15:23:09.948Z,4.18
2022-09-29T15:25:48.514Z,6.40
2022-09-29T15:28:34.644Z,5.25
2022-09-29T15:31:19.831Z,6.13
2022-09-29T15:33:57.414Z,4.68
2022-09-29T15:36:39.716Z,5.47
2022-09-29T15:39:45.455Z,3.88
2022-09-29T15:42:25.636Z,4.32
2022-09-29T15:45:06.154Z,6.03
2022-09-29T15:47:45.853Z,4.70
2022-09-29T15:50:26.226Z,6.85
2022-09-29T15:53:04.607Z,5.20
2022-09-29T15:55:42.436Z,6.60
2022-09-29T15:58:48.329Z,5.13
2022-09-29T16:01:25.652Z,6.13
2022-09-29T16:07:04.333Z,6.60
2022-09-29T16:09:42.695Z,8.32
2022-09-29T16:12:23.532Z,8.13
2022-09-29T16:15:01.547Z,8.13
2022-09-29T16:17:40.032Z,6.68
2022-09-29T16:20:29.395Z,6.63
2022-09-29T16:23:12.021Z,7.50
2022-09-29T16:25:49.026Z,6.07
2022-09-29T16:28:32.741Z,5.57
2022-09-29T16:31:22.928Z,6.15
2022-09-29T16:34:04.013Z,7.25
2022-09-29T16:36:44.482Z,6.13
2022-09-29T16:39:25.114Z,5.97
2022-09-29T16:42:09.727Z,6.40
2022-09-29T16:44:51.914Z,7.43
2022-09-29T16:47:34.751Z,6.77
2022-09-29T16:50:18.394Z,5.50
2022-09-29T16:52:58.866Z,8.07
2022-09-29T16:55:36.848Z,6.50
2022-09-29T16:58:16.703Z,7.33
2022-09-29T17:00:54.605Z,6.97
2022-09-29T17:03:32.888Z,8.07
2022-09-29T17:06:11.005Z,6.43
2022-09-29T17:08:52.516Z,6.23
2022-09-29T17:11:30.930Z,7.57
2022-09-29T17:14:14.061Z,8.07
2022-09-29T17:19:30.132Z,8.20
2022-09-29T17:22:20.213Z,7.97
2022-09-29T17:25:01.109Z,6.03
2022-09-29T17:28:06.552Z,8.03
2022-09-29T17:30:46.978Z,7.47
2022-09-29T17:33:26.811Z,7.63
2022-09-29T17:36:04.272Z,10.90
2022-09-29T17:38:42.692Z,9.57
2022-09-29T17:41:23.095Z,10.40
